Nearby METAR Reports

 

KCMA - Camarillo, California, USA
Distance from station: WSW 4mi, 7km
Updated: Tue, 21-May-2019 8:16am PDT
Mostly cloudy
Mostly cloudy
 Wind from SSW
Wind: SSW 7 mph , 11 km/h
Temperature: 57°F , 14°C
Dew Point: 50°F , 10°C
Humidity: 77%
Barometer: 29.93 inHg , 1013.5 hPa
Clouds: Mostly cloudy
Visibility: 10 miles , 16 km
Cloud details: Partly cloudy 2300 ft
Mostly cloudy 3500 ft
2019/05/21 15:16 KCMA 211516Z 20006KT 10SM SCT023 BKN035 14/10 A2993 RMK AO2 T01390100
KNTD - Point Mugu Nas, California, USA
Distance from station: SSW 9mi, 15km
Updated: Tue, 21-May-2019 7:57am PDT
Mist, Mostly cloudy
Mist, Mostly cloudy
 Wind from W
Wind: W 3 mph , 6 km/h
Temperature: 55°F , 13°C
Dew Point: 55°F , 13°C
Humidity: 100%
Barometer: 29.94 inHg , 1013.9 hPa
Summary: Mist
Clouds: Mostly cloudy
Visibility: 5 miles , 8 km
Cloud details: Few Clouds 2300 ft
Mostly cloudy 3200 ft
Mostly cloudy 28000 ft
2019/05/21 14:57 KNTD 211457Z 27003KT 5SM BR FEW023 BKN032 BKN280 13/13 A2994 RMK AO2 SLP141 T01330128 55002 $
 
KOXR - Oxnard, California, USA
Distance from station: WSW 10mi, 16km
Updated: Tue, 21-May-2019 8:13am PDT
Partly cloudy
Partly cloudy
 Wind from calm
Wind: Calm
Temperature: 57°F , 14°C
Dew Point: 52°F , 11°C
Humidity: 82%
Barometer: 29.93 inHg , 1013.5 hPa
Clouds: Partly cloudy
Visibility: 10 miles , 16 km
Cloud details: Partly cloudy 2600 ft
2019/05/21 15:13 KOXR 211513Z 00000KT 10SM SCT026 14/11 A2993 RMK AO2 T01440106
KVNY - Van Nuys, California, USA
Distance from station: E 31mi, 50km
Updated: Tue, 21-May-2019 7:51am PDT
Overcast
Overcast
 Wind from S
Wind: S 6 mph , 9 km/h
Temperature: 57°F , 14°C
Dew Point: 50°F , 10°C
Humidity: 77%
Barometer: 29.91 inHg , 1012.9 hPa
Clouds: Overcast
Visibility: 10 miles , 16 km
Cloud details: Mostly cloudy 1700 ft
Overcast 4400 ft
2019/05/21 14:51 KVNY 211451Z 18005KT 10SM BKN017 OVC044 14/10 A2991 RMK AO2 SLP124 T01390100 56005
 
KWHP - La / Whiteman, California, USA
Distance from station: E 35mi, 56km
Updated: Tue, 21-May-2019 7:50am PDT
Overcast
Overcast
 Wind from SE
Wind: SE 6 mph , 9 km/h
Temperature: 55°F , 13°C
Dew Point: 48°F , 9°C
Humidity: 77%
Barometer: 29.95 inHg , 1014.2 hPa
Clouds: Overcast
Visibility: 10 miles , 16 km
Cloud details: Partly cloudy 1500 ft
Mostly cloudy 3500 ft
Overcast 4500 ft
2019/05/21 14:50 KWHP 211450Z 13005KT 10SM SCT015 BKN035 OVC045 13/09 A2995
KSMO - Santa Monica, California, USA
Distance from station: ESE 36mi, 58km
Updated: Tue, 21-May-2019 7:51am PDT
Overcast
Overcast
 Wind from SW
Wind: SW 3 mph , 6 km/h
Temperature: 57°F , 14°C
Dew Point: 52°F , 11°C
Humidity: 82%
Barometer: 29.93 inHg , 1013.5 hPa
Clouds: Overcast
Visibility: 10 miles , 16 km
Cloud details: Overcast 1700 ft
2019/05/21 14:51 KSMO 211451Z 23003KT 10SM OVC017 14/11 A2993 RMK AO2 SLP135 T01440106 57002
 
KBUR - Burbank, California, USA
Distance from station: E 38mi, 61km
Updated: Tue, 21-May-2019 7:53am PDT
Overcast
Overcast
 Wind from SE
Wind: SE 8 mph , 13 km/h
Temperature: 55°F , 13°C
Dew Point: 50°F , 10°C
Humidity: 82%
Barometer: 29.91 inHg , 1012.9 hPa
Clouds: Overcast
Visibility: 10 miles , 16 km
Cloud details: Partly cloudy 1600 ft
Overcast 2200 ft
2019/05/21 14:53 KBUR 211453Z 14007KT 10SM SCT016 OVC022 13/10 A2991 RMK AO2 SLP120 T01330100 57005 $
KSDB - Sandberg, California, USA
Distance from station: NNE 40mi, 64km
Updated: Tue, 21-May-2019 7:53am PDT
Partly cloudy
Partly cloudy
 Wind from NW
Wind: NW 24 mph , 39 km/h, Gust: 35 mph , 56 km/h
Temperature: 43°F , 6°C
Wind Chill: 34°F , 1°C
Dew Point: 37°F , 3°C
Humidity: 81%
Barometer: 29.91 inHg , 1012.9 hPa
Clouds: Partly cloudy
Visibility: 10 miles , 16 km
Cloud details: Partly cloudy 600 ft
2019/05/21 14:53 KSDB 211453Z AUTO 32021G30KT 10SM SCT006 06/03 A2991 RMK AO2 PK WND 32030/1453 SLP108 T00610028 56004
 
KLAX - Los Angeles, California, USA
Distance from station: ESE 42mi, 68km
Updated: Tue, 21-May-2019 7:53am PDT
Mostly cloudy
Mostly cloudy
 Wind from W
Wind: W 3 mph , 6 km/h
Temperature: 59°F , 15°C
Dew Point: 52°F , 11°C
Humidity: 77%
Barometer: 29.93 inHg , 1013.5 hPa
Clouds: Mostly cloudy
Visibility: 10 miles , 16 km
Cloud details: Mostly cloudy 1900 ft
Mostly cloudy 2900 ft
2019/05/21 14:53 KLAX 211453Z 26003KT 10SM BKN019 BKN029 15/11 A2993 RMK AO2 SLP133 T01500106 $
KCQT - Los Angeles, California, USA
Distance from station: ESE 45mi, 73km
Updated: Tue, 21-May-2019 8:26am PDT
Overcast
Overcast
 Wind from calm
Wind: Calm
Temperature: 63°F , 17°C
Dew Point: 52°F , 11°C
Humidity: 68%
Barometer: 29.92 inHg , 1013.2 hPa
Clouds: Overcast
Visibility: 10 miles , 16 km
Cloud details: Partly cloudy 1600 ft
Mostly cloudy 3700 ft
Overcast 4400 ft
2019/05/21 15:26 KCQT 211526Z AUTO 00000KT 10SM SCT016 BKN037 OVC044 17/11 A2992 RMK AO2 T01670111 $
 
KHHR - Hawthorne, California, USA
Distance from station: ESE 45mi, 73km
Updated: Tue, 21-May-2019 8:32am PDT
Mostly cloudy
Mostly cloudy
 Wind from varies
Wind: varies 3 mph , 6 km/h
Temperature: 61°F , 16°C
Dew Point: 48°F , 9°C
Humidity: 63%
Barometer: 29.93 inHg , 1013.5 hPa
Clouds: Mostly cloudy
Visibility: 10 miles , 16 km
Cloud details: Few Clouds 1600 ft
Mostly cloudy 2800 ft
Mostly cloudy 3300 ft
2019/05/21 15:32 KHHR 211532Z VRB03KT 10SM FEW016 BKN028 BKN033 16/09 A2993 RMK AO2 T01560094
KSBA - Santa Barbara, California, USA
Distance from station: WNW 49mi, 79km
Updated: Tue, 21-May-2019 7:53am PDT
Mostly cloudy
Mostly cloudy
 Wind from WSW
Wind: WSW 3 mph , 6 km/h
Temperature: 57°F , 14°C
Dew Point: 45°F , 7°C
Humidity: 63%
Barometer: 29.94 inHg , 1013.9 hPa
Clouds: Mostly cloudy
Visibility: 10 miles , 16 km
Cloud details: Mostly cloudy 6000 ft
2019/05/21 14:53 KSBA 211453Z 24003KT 10SM BKN060 14/07 A2994 RMK AO2 SLP138 T01440067 53001